sensor_id;sensor_type;location;lat;lon;timestamp;pressure;altitude;pressure_sealevel;temperature;humidity
35647;BME280;28680;45.642;13.756;2023-02-18T00:01:18;102734.09;;;8.42;100.00
35647;BME280;28680;45.642;13.756;2023-02-18T00:03:46;102736.66;;;8.43;100.00
35647;BME280;28680;45.642;13.756;2023-02-18T00:06:20;102728.72;;;8.45;100.00
35647;BME280;28680;45.642;13.756;2023-02-18T00:08:47;102736.72;;;8.42;100.00
35647;BME280;28680;45.642;13.756;2023-02-18T00:11:15;102734.16;;;8.38;100.00
35647;BME280;28680;45.642;13.756;2023-02-18T00:13:41;102718.69;;;8.32;100.00
35647;BME280;28680;45.642;13.756;2023-02-18T00:16:10;102717.13;;;8.28;100.00
35647;BME280;28680;45.642;13.756;2023-02-18T00:18:37;102716.97;;;8.31;100.00
35647;BME280;28680;45.642;13.756;2023-02-18T00:21:05;102701.41;;;8.28;100.00
35647;BME280;28680;45.642;13.756;2023-02-18T00:23:32;102709.25;;;8.28;100.00
35647;BME280;28680;45.642;13.756;2023-02-18T00:26:07;102706.75;;;8.25;100.00
35647;BME280;28680;45.642;13.756;2023-02-18T00:28:34;102706.56;;;8.30;100.00
35647;BME280;28680;45.642;13.756;2023-02-18T00:31:09;102706.47;;;8.33;100.00
35647;BME280;28680;45.642;13.756;2023-02-18T00:33:36;102707.38;;;8.32;100.00
35647;BME280;28680;45.642;13.756;2023-02-18T00:36:06;102704.59;;;8.36;100.00
35647;BME280;28680;45.642;13.756;2023-02-18T00:38:32;102708.00;;;8.38;100.00
35647;BME280;28680;45.642;13.756;2023-02-18T00:40:59;102699.16;;;8.43;100.00
35647;BME280;28680;45.642;13.756;2023-02-18T00:43:24;102704.16;;;8.49;100.00
35647;BME280;28680;45.642;13.756;2023-02-18T00:45:50;102697.91;;;8.53;100.00
35647;BME280;28680;45.642;13.756;2023-02-18T00:48:16;102702.84;;;8.61;100.00
35647;BME280;28680;45.642;13.756;2023-02-18T00:50:42;102687.47;;;8.51;100.00
35647;BME280;28680;45.642;13.756;2023-02-18T00:53:08;102691.97;;;8.48;100.00
35647;BME280;28680;45.642;13.756;2023-02-18T00:55:40;102689.38;;;8.48;100.00
35647;BME280;28680;45.642;13.756;2023-02-18T00:58:06;102688.53;;;8.47;100.00
35647;BME280;28680;45.642;13.756;2023-02-18T01:00:32;102695.84;;;8.37;100.00
35647;BME280;28680;45.642;13.756;2023-02-18T01:02:58;102691.41;;;8.39;100.00
35647;BME280;28680;45.642;13.756;2023-02-18T01:05:23;102690.59;;;8.37;100.00
35647;BME280;28680;45.642;13.756;2023-02-18T01:07:49;102694.31;;;8.32;100.00
35647;BME280;28680;45.642;13.756;2023-02-18T01:10:15;102694.47;;;8.27;100.00
35647;BME280;28680;45.642;13.756;2023-02-18T01:12:42;102692.47;;;8.34;100.00
35647;BME280;28680;45.642;13.756;2023-02-18T01:15:09;102692.41;;;8.35;100.00
35647;BME280;28680;45.642;13.756;2023-02-18T01:17:36;102692.16;;;8.43;100.00
35647;BME280;28680;45.642;13.756;2023-02-18T01:20:02;102695.34;;;8.51;100.00
35647;BME280;28680;45.642;13.756;2023-02-18T01:22:28;102684.88;;;8.51;100.00
35647;BME280;28680;45.642;13.756;2023-02-18T01:24:54;102690.34;;;8.45;100.00
35647;BME280;28680;45.642;13.756;2023-02-18T01:27:19;102693.84;;;8.44;100.00
35647;BME280;28680;45.642;13.756;2023-02-18T01:29:45;102682.63;;;8.40;100.00
35647;BME280;28680;45.642;13.756;2023-02-18T01:32:11;102681.63;;;8.45;100.00
35647;BME280;28680;45.642;13.756;2023-02-18T01:34:37;102686.00;;;8.44;100.00
35647;BME280;28680;45.642;13.756;2023-02-18T01:37:03;102677.38;;;8.42;100.00
35647;BME280;28680;45.642;13.756;2023-02-18T01:39:28;102679.69;;;8.50;100.00
35647;BME280;28680;45.642;13.756;2023-02-18T01:41:54;102664.91;;;8.49;100.00
35647;BME280;28680;45.642;13.756;2023-02-18T01:44:25;102657.06;;;8.49;100.00
35647;BME280;28680;45.642;13.756;2023-02-18T01:46:51;102657.97;;;8.48;100.00
35647;BME280;28680;45.642;13.756;2023-02-18T01:49:33;102660.53;;;8.49;100.00
35647;BME280;28680;45.642;13.756;2023-02-18T01:52:10;102656.03;;;8.53;100.00
35647;BME280;28680;45.642;13.756;2023-02-18T01:54:41;102648.28;;;8.50;100.00
35647;BME280;28680;45.642;13.756;2023-02-18T01:57:11;102637.28;;;8.42;100.00
35647;BME280;28680;45.642;13.756;2023-02-18T02:00:18;102644.34;;;8.38;100.00
35647;BME280;28680;45.642;13.756;2023-02-18T02:02:41;102646.91;;;8.39;100.00
35647;BME280;28680;45.642;13.756;2023-02-18T02:05:08;102639.06;;;8.39;100.00
35647;BME280;28680;45.642;13.756;2023-02-18T02:07:33;102639.88;;;8.42;100.00
35647;BME280;28680;45.642;13.756;2023-02-18T02:10:00;102638.78;;;8.47;100.00
35647;BME280;28680;45.642;13.756;2023-02-18T02:15:50;102635.19;;;8.50;100.00
35647;BME280;28680;45.642;13.756;2023-02-18T02:21:14;102640.44;;;8.50;100.00
35647;BME280;28680;45.642;13.756;2023-02-18T02:24:56;102649.44;;;8.41;100.00
35647;BME280;28680;45.642;13.756;2023-02-18T02:27:20;102655.66;;;8.38;100.00
35647;BME280;28680;45.642;13.756;2023-02-18T02:30:39;102637.28;;;8.40;100.00
35647;BME280;28680;45.642;13.756;2023-02-18T02:37:35;102635.31;;;8.47;100.00
35647;BME280;28680;45.642;13.756;2023-02-18T02:45:53;102621.22;;;8.51;100.00
35647;BME280;28680;45.642;13.756;2023-02-18T02:53:43;102612.44;;;8.52;100.00
35647;BME280;28680;45.642;13.756;2023-02-18T02:56:24;102621.81;;;8.57;100.00
35647;BME280;28680;45.642;13.756;2023-02-18T02:59:01;102619.97;;;8.59;100.00
35647;BME280;28680;45.642;13.756;2023-02-18T03:11:09;102622.00;;;8.53;100.00
35647;BME280;28680;45.642;13.756;2023-02-18T03:14:07;102626.19;;;8.57;100.00
35647;BME280;28680;45.642;13.756;2023-02-18T03:17:13;102619.25;;;8.56;100.00
35647;BME280;28680;45.642;13.756;2023-02-18T03:19:52;102614.19;;;8.51;100.00
35647;BME280;28680;45.642;13.756;2023-02-18T03:22:36;102612.31;;;8.55;100.00
35647;BME280;28680;45.642;13.756;2023-02-18T03:25:04;102618.34;;;8.57;100.00
35647;BME280;28680;45.642;13.756;2023-02-18T03:28:14;102613.13;;;8.57;100.00
35647;BME280;28680;45.642;13.756;2023-02-18T03:33:17;102603.69;;;8.53;100.00
35647;BME280;28680;45.642;13.756;2023-02-18T03:35:46;102602.09;;;8.49;100.00
35647;BME280;28680;45.642;13.756;2023-02-18T03:38:35;102606.47;;;8.48;100.00
35647;BME280;28680;45.642;13.756;2023-02-18T03:41:04;102601.97;;;8.52;100.00
35647;BME280;28680;45.642;13.756;2023-02-18T03:43:30;102607.09;;;8.55;100.00
35647;BME280;28680;45.642;13.756;2023-02-18T03:45:56;102599.09;;;8.58;100.00
35647;BME280;28680;45.642;13.756;2023-02-18T03:48:24;102597.22;;;8.62;100.00
35647;BME280;28680;45.642;13.756;2023-02-18T03:50:50;102597.94;;;8.65;100.00
35647;BME280;28680;45.642;13.756;2023-02-18T03:53:15;102598.97;;;8.61;100.00
35647;BME280;28680;45.642;13.756;2023-02-18T03:55:41;102598.09;;;8.62;100.00
35647;BME280;28680;45.642;13.756;2023-02-18T03:58:07;102595.47;;;8.62;100.00
35647;BME280;28680;45.642;13.756;2023-02-18T04:00:33;102594.53;;;8.63;100.00
35647;BME280;28680;45.642;13.756;2023-02-18T04:02:59;102597.16;;;8.63;100.00
35647;BME280;28680;45.642;13.756;2023-02-18T04:05:25;102586.50;;;8.68;100.00
35647;BME280;28680;45.642;13.756;2023-02-18T04:07:51;102590.81;;;8.69;100.00
35647;BME280;28680;45.642;13.756;2023-02-18T04:10:17;102600.44;;;8.68;100.00
35647;BME280;28680;45.642;13.756;2023-02-18T04:12:42;102601.53;;;8.63;100.00
35647;BME280;28680;45.642;13.756;2023-02-18T04:15:09;102606.03;;;8.59;100.00
35647;BME280;28680;45.642;13.756;2023-02-18T04:17:35;102606.94;;;8.58;100.00
35647;BME280;28680;45.642;13.756;2023-02-18T04:20:00;102602.38;;;8.63;100.00
35647;BME280;28680;45.642;13.756;2023-02-18T04:22:26;102606.78;;;8.63;100.00
35647;BME280;28680;45.642;13.756;2023-02-18T04:24:52;102603.31;;;8.62;100.00
35647;BME280;28680;45.642;13.756;2023-02-18T04:27:18;102599.97;;;8.58;100.00
35647;BME280;28680;45.642;13.756;2023-02-18T04:29:44;102590.66;;;8.51;100.00
35647;BME280;28680;45.642;13.756;2023-02-18T04:32:10;102598.66;;;8.47;100.00
35647;BME280;28680;45.642;13.756;2023-02-18T04:34:35;102595.94;;;8.50;100.00
35647;BME280;28680;45.642;13.756;2023-02-18T04:37:01;102593.22;;;8.53;100.00
35647;BME280;28680;45.642;13.756;2023-02-18T04:39:27;102589.97;;;8.46;100.00
35647;BME280;28680;45.642;13.756;2023-02-18T04:41:53;102586.31;;;8.50;100.00
35647;BME280;28680;45.642;13.756;2023-02-18T04:44:18;102586.94;;;8.57;100.00
35647;BME280;28680;45.642;13.756;2023-02-18T04:46:44;102589.50;;;8.58;100.00
35647;BME280;28680;45.642;13.756;2023-02-18T04:49:10;102587.84;;;8.56;100.00
35647;BME280;28680;45.642;13.756;2023-02-18T04:51:36;102594.84;;;8.55;100.00
35647;BME280;28680;45.642;13.756;2023-02-18T04:54:03;102584.38;;;8.55;100.00
35647;BME280;28680;45.642;13.756;2023-02-18T04:56:29;102589.56;;;8.57;100.00
35647;BME280;28680;45.642;13.756;2023-02-18T04:58:54;102582.59;;;8.56;100.00
35647;BME280;28680;45.642;13.756;2023-02-18T05:01:20;102578.97;;;8.60;100.00
35647;BME280;28680;45.642;13.756;2023-02-18T05:03:46;102582.44;;;8.61;100.00
35647;BME280;28680;45.642;13.756;2023-02-18T05:06:12;102576.34;;;8.60;100.00
35647;BME280;28680;45.642;13.756;2023-02-18T05:08:38;102573.75;;;8.60;100.00
35647;BME280;28680;45.642;13.756;2023-02-18T05:11:07;102571.97;;;8.61;100.00
35647;BME280;28680;45.642;13.756;2023-02-18T05:13:34;102576.34;;;8.60;100.00
35647;BME280;28680;45.642;13.756;2023-02-18T05:16:01;102569.34;;;8.61;100.00
35647;BME280;28680;45.642;13.756;2023-02-18T05:18:27;102571.75;;;8.65;100.00
35647;BME280;28680;45.642;13.756;2023-02-18T05:20:52;102573.41;;;8.68;100.00
35647;BME280;28680;45.642;13.756;2023-02-18T05:23:18;102566.59;;;8.64;100.00
35647;BME280;28680;45.642;13.756;2023-02-18T05:25:46;102563.44;;;8.55;100.00
35647;BME280;28680;45.642;13.756;2023-02-18T05:28:12;102570.50;;;8.53;100.00
35647;BME280;28680;45.642;13.756;2023-02-18T05:30:38;102568.94;;;8.49;100.00
35647;BME280;28680;45.642;13.756;2023-02-18T05:33:04;102579.34;;;8.51;100.00
35647;BME280;28680;45.642;13.756;2023-02-18T05:35:30;102578.56;;;8.49;100.00
35647;BME280;28680;45.642;13.756;2023-02-18T05:37:55;102579.34;;;8.51;100.00
35647;BME280;28680;45.642;13.756;2023-02-18T05:40:21;102588.03;;;8.51;100.00
35647;BME280;28680;45.642;13.756;2023-02-18T05:42:47;102587.78;;;8.57;100.00
35647;BME280;28680;45.642;13.756;2023-02-18T05:45:13;102581.38;;;8.65;100.00
35647;BME280;28680;45.642;13.756;2023-02-18T05:47:39;102583.38;;;8.58;100.00
35647;BME280;28680;45.642;13.756;2023-02-18T05:50:06;102587.00;;;8.55;100.00
35647;BME280;28680;45.642;13.756;2023-02-18T05:52:32;102586.88;;;8.58;100.00
35647;BME280;28680;45.642;13.756;2023-02-18T05:54:57;102586.63;;;8.65;100.00
35647;BME280;28680;45.642;13.756;2023-02-18T05:57:23;102585.69;;;8.66;100.00
35647;BME280;28680;45.642;13.756;2023-02-18T05:59:49;102584.78;;;8.67;100.00
35647;BME280;28680;45.642;13.756;2023-02-18T06:02:15;102584.78;;;8.67;100.00
35647;BME280;28680;45.642;13.756;2023-02-18T06:04:41;102583.81;;;8.69;100.00
35647;BME280;28680;45.642;13.756;2023-02-18T06:07:07;102579.50;;;8.68;100.00
35647;BME280;28680;45.642;13.756;2023-02-18T06:09:33;102583.69;;;8.72;100.00
35647;BME280;28680;45.642;13.756;2023-02-18T06:11:59;102577.47;;;8.75;100.00
35647;BME280;28680;45.642;13.756;2023-02-18T06:14:25;102572.16;;;8.76;100.00
35647;BME280;28680;45.642;13.756;2023-02-18T06:16:50;102567.66;;;8.80;100.00
35647;BME280;28680;45.642;13.756;2023-02-18T06:19:16;102574.63;;;8.81;100.00
35647;BME280;28680;45.642;13.756;2023-02-18T06:21:42;102584.09;;;8.84;100.00
35647;BME280;28680;45.642;13.756;2023-02-18T06:24:08;102592.63;;;8.89;100.00
35647;BME280;28680;45.642;13.756;2023-02-18T06:26:34;102588.34;;;8.86;100.00
35647;BME280;28680;45.642;13.756;2023-02-18T06:29:00;102593.47;;;8.89;100.00
35647;BME280;28680;45.642;13.756;2023-02-18T06:31:26;102589.94;;;8.90;100.00
35647;BME280;28680;45.642;13.756;2023-02-18T06:33:52;102592.47;;;8.92;100.00
35647;BME280;28680;45.642;13.756;2023-02-18T06:36:18;102598.75;;;8.88;100.00
35647;BME280;28680;45.642;13.756;2023-02-18T06:38:44;102601.53;;;8.85;100.00
35647;BME280;28680;45.642;13.756;2023-02-18T06:41:12;102599.09;;;8.80;100.00
35647;BME280;28680;45.642;13.756;2023-02-18T06:43:39;102600.91;;;8.78;100.00
35647;BME280;28680;45.642;13.756;2023-02-18T06:46:05;102599.94;;;8.81;100.00
35647;BME280;28680;45.642;13.756;2023-02-18T06:48:31;102605.88;;;8.84;100.00
35647;BME280;28680;45.642;13.756;2023-02-18T06:50:57;102606.56;;;8.89;100.00
35647;BME280;28680;45.642;13.756;2023-02-18T06:53:23;102608.44;;;8.86;100.00
35647;BME280;28680;45.642;13.756;2023-02-18T06:55:49;102617.09;;;8.88;100.00
35647;BME280;28680;45.642;13.756;2023-02-18T06:58:15;102604.94;;;8.87;100.00
35647;BME280;28680;45.642;13.756;2023-02-18T07:00:42;102599.59;;;8.88;100.00
35647;BME280;28680;45.642;13.756;2023-02-18T07:03:14;102606.34;;;8.94;100.00
35647;BME280;28680;45.642;13.756;2023-02-18T07:05:41;102609.78;;;8.96;100.00
35647;BME280;28680;45.642;13.756;2023-02-18T07:08:06;102605.25;;;9.00;100.00
35647;BME280;28680;45.642;13.756;2023-02-18T07:10:33;102603.56;;;8.98;100.00
35647;BME280;28680;45.642;13.756;2023-02-18T07:12:58;102608.75;;;9.00;100.00
35647;BME280;28680;45.642;13.756;2023-02-18T07:15:24;102600.78;;;9.02;100.00
35647;BME280;28680;45.642;13.756;2023-02-18T07:17:53;102600.75;;;9.03;100.00
35647;BME280;28680;45.642;13.756;2023-02-18T07:20:20;102597.16;;;9.06;100.00
35647;BME280;28680;45.642;13.756;2023-02-18T07:22:46;102589.16;;;9.09;100.00
35647;BME280;28680;45.642;13.756;2023-02-18T07:25:12;102591.13;;;9.04;100.00
35647;BME280;28680;45.642;13.756;2023-02-18T07:27:39;102587.84;;;8.98;100.00
35647;BME280;28680;45.642;13.756;2023-02-18T07:30:06;102596.50;;;9.01;100.00
35647;BME280;28680;45.642;13.756;2023-02-18T07:32:31;102602.63;;;9.00;100.00
35647;BME280;28680;45.642;13.756;2023-02-18T07:34:57;102603.25;;;9.06;100.00
35647;BME280;28680;45.642;13.756;2023-02-18T07:37:23;102603.25;;;9.06;100.00
35647;BME280;28680;45.642;13.756;2023-02-18T07:39:49;102596.94;;;9.10;100.00
35647;BME280;28680;45.642;13.756;2023-02-18T07:42:15;102601.91;;;9.16;100.00
35647;BME280;28680;45.642;13.756;2023-02-18T07:44:41;102599.19;;;9.20;100.00
35647;BME280;28680;45.642;13.756;2023-02-18T07:47:09;102603.25;;;9.27;100.00
35647;BME280;28680;45.642;13.756;2023-02-18T07:49:37;102601.28;;;9.32;100.00
35647;BME280;28680;45.642;13.756;2023-02-18T07:52:03;102597.72;;;9.33;100.00
35647;BME280;28680;45.642;13.756;2023-02-18T07:54:29;102597.47;;;9.39;100.00
35647;BME280;28680;45.642;13.756;2023-02-18T07:56:55;102594.00;;;9.39;100.00
35647;BME280;28680;45.642;13.756;2023-02-18T07:59:21;102597.56;;;9.38;100.00
35647;BME280;28680;45.642;13.756;2023-02-18T08:01:46;102601.78;;;9.40;100.00
35647;BME280;28680;45.642;13.756;2023-02-18T08:04:13;102611.28;;;9.43;100.00
35647;BME280;28680;45.642;13.756;2023-02-18T08:06:43;102617.38;;;9.43;100.00
35647;BME280;28680;45.642;13.756;2023-02-18T08:09:11;102608.53;;;9.46;100.00
35647;BME280;28680;45.642;13.756;2023-02-18T08:11:37;102599.03;;;9.43;100.00
35647;BME280;28680;45.642;13.756;2023-02-18T08:14:03;102598.06;;;9.46;100.00
35647;BME280;28680;45.642;13.756;2023-02-18T08:16:30;102597.84;;;9.50;100.00
35647;BME280;28680;45.642;13.756;2023-02-18T08:18:56;102598.56;;;9.54;100.00
35647;BME280;28680;45.642;13.756;2023-02-18T08:21:23;102613.31;;;9.56;100.00
35647;BME280;28680;45.642;13.756;2023-02-18T08:23:50;102606.34;;;9.55;100.00
35647;BME280;28680;45.642;13.756;2023-02-18T08:26:17;102614.09;;;9.59;100.00
35647;BME280;28680;45.642;13.756;2023-02-18T08:28:44;102609.63;;;9.61;100.00
35647;BME280;28680;45.642;13.756;2023-02-18T08:31:29;102607.78;;;9.63;100.00
35647;BME280;28680;45.642;13.756;2023-02-18T08:33:57;102616.44;;;9.65;100.00
35647;BME280;28680;45.642;13.756;2023-02-18T08:36:23;102614.47;;;9.70;100.00
35647;BME280;28680;45.642;13.756;2023-02-18T08:38:49;102618.66;;;9.74;100.00
35647;BME280;28680;45.642;13.756;2023-02-18T08:41:15;102620.34;;;9.75;100.00
35647;BME280;28680;45.642;13.756;2023-02-18T08:43:43;102614.91;;;9.80;100.00
35647;BME280;28680;45.642;13.756;2023-02-18T08:46:09;102619.28;;;9.79;100.00
35647;BME280;28680;45.642;13.756;2023-02-18T08:48:35;102610.63;;;9.77;100.00
35647;BME280;28680;45.642;13.756;2023-02-18T08:51:19;102605.47;;;9.75;100.00
35647;BME280;28680;45.642;13.756;2023-02-18T08:53:45;102614.03;;;9.79;100.00
35647;BME280;28680;45.642;13.756;2023-02-18T08:56:13;102614.69;;;9.84;100.00
35647;BME280;28680;45.642;13.756;2023-02-18T08:58:40;102608.53;;;9.85;100.00
35647;BME280;28680;45.642;13.756;2023-02-18T09:01:09;102605.97;;;9.84;100.00
35647;BME280;28680;45.642;13.756;2023-02-18T09:03:36;102610.16;;;9.88;100.00
35647;BME280;28680;45.642;13.756;2023-02-18T09:06:03;102597.69;;;9.93;100.00
35647;BME280;28680;45.642;13.756;2023-02-18T09:08:29;102596.69;;;9.95;100.00
35647;BME280;28680;45.642;13.756;2023-02-18T09:10:57;102593.88;;;10.00;100.00
35647;BME280;28680;45.642;13.756;2023-02-18T09:13:24;102594.34;;;10.08;100.00
35647;BME280;28680;45.642;13.756;2023-02-18T09:16:17;102604.56;;;10.14;100.00
35647;BME280;28680;45.642;13.756;2023-02-18T09:18:44;102584.28;;;10.18;100.00
35647;BME280;28680;45.642;13.756;2023-02-18T09:21:12;102584.13;;;10.21;100.00
35647;BME280;28680;45.642;13.756;2023-02-18T09:23:39;102582.00;;;10.29;100.00
35647;BME280;28680;45.642;13.756;2023-02-18T09:26:08;102594.72;;;10.39;100.00
35647;BME280;28680;45.642;13.756;2023-02-18T09:28:35;102582.94;;;10.47;100.00
35647;BME280;28680;45.642;13.756;2023-02-18T09:31:07;102581.69;;;10.54;100.00
35647;BME280;28680;45.642;13.756;2023-02-18T09:33:40;102566.56;;;10.60;100.00
35647;BME280;28680;45.642;13.756;2023-02-18T09:36:07;102568.72;;;10.69;100.00
35647;BME280;28680;45.642;13.756;2023-02-18T09:38:34;102569.88;;;10.81;100.00
35647;BME280;28680;45.642;13.756;2023-02-18T09:41:04;102563.56;;;10.85;100.00
35647;BME280;28680;45.642;13.756;2023-02-18T09:43:46;102559.25;;;10.84;100.00
35647;BME280;28680;45.642;13.756;2023-02-18T09:48:52;102566.09;;;10.86;100.00
35647;BME280;28680;45.642;13.756;2023-02-18T09:51:18;102564.88;;;10.93;100.00
35647;BME280;28680;45.642;13.756;2023-02-18T09:53:45;102564.88;;;10.93;100.00
35647;BME280;28680;45.642;13.756;2023-02-18T09:56:16;102557.22;;;11.06;100.00
35647;BME280;28680;45.642;13.756;2023-02-18T09:58:46;102555.59;;;11.04;100.00
35647;BME280;28680;45.642;13.756;2023-02-18T10:01:40;102547.41;;;11.10;100.00
35647;BME280;28680;45.642;13.756;2023-02-18T10:06:45;102533.19;;;11.14;100.00
35647;BME280;28680;45.642;13.756;2023-02-18T10:09:32;102535.53;;;11.19;100.00
35647;BME280;28680;45.642;13.756;2023-02-18T10:12:21;102539.56;;;11.26;100.00
35647;BME280;28680;45.642;13.756;2023-02-18T10:14:57;102541.84;;;11.32;100.00
35647;BME280;28680;45.642;13.756;2023-02-18T10:17:27;102543.97;;;11.59;100.00
35647;BME280;28680;45.642;13.756;2023-02-18T10:19:56;102550.34;;;11.70;100.00
35647;BME280;28680;45.642;13.756;2023-02-18T10:22:24;102540.84;;;11.84;100.00
35647;BME280;28680;45.642;13.756;2023-02-18T10:24:59;102552.28;;;12.00;100.00
35647;BME280;28680;45.642;13.756;2023-02-18T10:27:36;102549.59;;;11.84;100.00
35647;BME280;28680;45.642;13.756;2023-02-18T10:30:31;102544.47;;;11.81;100.00
35647;BME280;28680;45.642;13.756;2023-02-18T10:39:12;102532.50;;;11.76;100.00
35647;BME280;28680;45.642;13.756;2023-02-18T10:52:44;102523.13;;;11.87;100.00
35647;BME280;28680;45.642;13.756;2023-02-18T10:55:15;102527.38;;;11.90;100.00
35647;BME280;28680;45.642;13.756;2023-02-18T10:57:51;102521.19;;;11.91;100.00
35647;BME280;28680;45.642;13.756;2023-02-18T11:02:46;102505.06;;;11.97;100.00
35647;BME280;28680;45.642;13.756;2023-02-18T11:05:27;102493.94;;;11.92;100.00
35647;BME280;28680;45.642;13.756;2023-02-18T11:07:56;102495.72;;;11.92;100.00
35647;BME280;28680;45.642;13.756;2023-02-18T11:10:31;102499.19;;;11.92;100.00
35647;BME280;28680;45.642;13.756;2023-02-18T11:13:05;102498.00;;;11.98;100.00
35647;BME280;28680;45.642;13.756;2023-02-18T11:15:31;102496.91;;;12.02;100.00
35647;BME280;28680;45.642;13.756;2023-02-18T11:18:25;102491.47;;;12.05;100.00
35647;BME280;28680;45.642;13.756;2023-02-18T11:21:19;102487.72;;;12.09;100.00
35647;BME280;28680;45.642;13.756;2023-02-18T11:23:51;102466.41;;;12.14;100.00
35647;BME280;28680;45.642;13.756;2023-02-18T11:26:30;102465.47;;;12.15;100.00
35647;BME280;28680;45.642;13.756;2023-02-18T11:31:47;102457.72;;;12.12;100.00
35647;BME280;28680;45.642;13.756;2023-02-18T11:34:28;102462.34;;;12.08;100.00
35647;BME280;28680;45.642;13.756;2023-02-18T11:37:07;102473.97;;;12.20;100.00
35647;BME280;28680;45.642;13.756;2023-02-18T11:39:34;102463.59;;;12.17;100.00
35647;BME280;28680;45.642;13.756;2023-02-18T11:42:06;102455.66;;;12.02;100.00
35647;BME280;28680;45.642;13.756;2023-02-18T11:44:37;102459.28;;;11.84;100.00
35647;BME280;28680;45.642;13.756;2023-02-18T11:49:41;102452.06;;;11.71;100.00
35647;BME280;28680;45.642;13.756;2023-02-18T11:52:32;102459.41;;;11.66;100.00
35647;BME280;28680;45.642;13.756;2023-02-18T11:55:04;102443.41;;;12.01;100.00
35647;BME280;28680;45.642;13.756;2023-02-18T11:57:36;102437.91;;;11.90;100.00
35647;BME280;28680;45.642;13.756;2023-02-18T12:00:44;102428.41;;;11.87;100.00
35647;BME280;28680;45.642;13.756;2023-02-18T12:03:42;102429.66;;;11.96;100.00
35647;BME280;28680;45.642;13.756;2023-02-18T12:11:39;102418.69;;;12.20;100.00
35647;BME280;28680;45.642;13.756;2023-02-18T12:14:21;102420.19;;;12.24;100.00
35647;BME280;28680;45.642;13.756;2023-02-18T12:22:45;102405.28;;;12.39;100.00
35647;BME280;28680;45.642;13.756;2023-02-18T12:25:43;102402.47;;;12.56;100.00
35647;BME280;28680;45.642;13.756;2023-02-18T12:42:07;102388.66;;;12.96;100.00
35647;BME280;28680;45.642;13.756;2023-02-18T12:45:14;102382.81;;;12.91;100.00
35647;BME280;28680;45.642;13.756;2023-02-18T12:50:46;102364.53;;;13.02;100.00
35647;BME280;28680;45.642;13.756;2023-02-18T12:54:03;102373.56;;;13.12;100.00
35647;BME280;28680;45.642;13.756;2023-02-18T13:08:58;102343.19;;;13.61;100.00
35647;BME280;28680;45.642;13.756;2023-02-18T13:14:19;102342.59;;;14.10;100.00
35647;BME280;28680;45.642;13.756;2023-02-18T13:16:51;102345.00;;;14.00;100.00
35647;BME280;28680;45.642;13.756;2023-02-18T13:19:32;102342.97;;;13.78;100.00
35647;BME280;28680;45.642;13.756;2023-02-18T13:22:03;102340.59;;;13.74;100.00
35647;BME280;28680;45.642;13.756;2023-02-18T13:24:39;102338.22;;;13.96;100.00
35647;BME280;28680;45.642;13.756;2023-02-18T13:30:36;102327.94;;;14.57;100.00
35647;BME280;28680;45.642;13.756;2023-02-18T13:33:30;102325.41;;;15.06;100.00
35647;BME280;28680;45.642;13.756;2023-02-18T13:36:35;102316.03;;;15.26;100.00
35647;BME280;28680;45.642;13.756;2023-02-18T13:39:06;102314.47;;;15.10;100.00
35647;BME280;28680;45.642;13.756;2023-02-18T13:41:42;102318.72;;;14.37;100.00
35647;BME280;28680;45.642;13.756;2023-02-18T13:46:57;102325.56;;;13.49;100.00
35647;BME280;28680;45.642;13.756;2023-02-18T13:49:30;102322.75;;;13.64;100.00
35647;BME280;28680;45.642;13.756;2023-02-18T13:51:58;102317.00;;;13.85;100.00
35647;BME280;28680;45.642;13.756;2023-02-18T13:54:43;102308.47;;;14.33;100.00
35647;BME280;28680;45.642;13.756;2023-02-18T13:57:21;102307.41;;;14.35;100.00
35647;BME280;28680;45.642;13.756;2023-02-18T14:00:04;102313.34;;;14.52;100.00
35647;BME280;28680;45.642;13.756;2023-02-18T14:02:34;102305.28;;;14.53;100.00
35647;BME280;28680;45.642;13.756;2023-02-18T14:10:26;102299.59;;;14.34;100.00
35647;BME280;28680;45.642;13.756;2023-02-18T14:31:43;102283.81;;;13.68;100.00
35647;BME280;28680;45.642;13.756;2023-02-18T14:34:50;102288.81;;;13.45;100.00
35647;BME280;28680;45.642;13.756;2023-02-18T14:37:49;102289.50;;;13.62;100.00
35647;BME280;28680;45.642;13.756;2023-02-18T14:51:51;102284.94;;;13.24;100.00
35647;BME280;28680;45.642;13.756;2023-02-18T14:54:20;102285.84;;;13.37;100.00
35647;BME280;28680;45.642;13.756;2023-02-18T14:57:07;102277.28;;;13.06;100.00
35647;BME280;28680;45.642;13.756;2023-02-18T14:59:44;102275.81;;;13.15;100.00
35647;BME280;28680;45.642;13.756;2023-02-18T15:02:21;102268.63;;;13.04;100.00
35647;BME280;28680;45.642;13.756;2023-02-18T15:04:48;102277.13;;;13.22;100.00
35647;BME280;28680;45.642;13.756;2023-02-18T15:07:21;102280.56;;;12.68;100.00
35647;BME280;28680;45.642;13.756;2023-02-18T15:09:56;102284.53;;;12.33;100.00
35647;BME280;28680;45.642;13.756;2023-02-18T15:12:23;102288.28;;;12.57;100.00
35647;BME280;28680;45.642;13.756;2023-02-18T15:14:52;102273.97;;;12.47;100.00
35647;BME280;28680;45.642;13.756;2023-02-18T15:17:24;102278.31;;;12.48;100.00
35647;BME280;28680;45.642;13.756;2023-02-18T15:19:55;102282.53;;;12.65;100.00
35647;BME280;28680;45.642;13.756;2023-02-18T15:22:24;102280.00;;;12.49;100.00
35647;BME280;28680;45.642;13.756;2023-02-18T15:24:53;102289.28;;;12.12;100.00
35647;BME280;28680;45.642;13.756;2023-02-18T15:27:27;102280.63;;;11.95;100.00